Wan Hai 273 — 9V7586 — position and weather

sailwx.info

Track history (hours):
 
Tides and Currents Weather Stations Pressure Air Temp Water Temp Dewpoint Dewpoint Depression Visibility Wind Speed Wind Dir Waves Ship Positions

Wan Hai 273

Last reported at 2017-May-24 12:34 UTC. Time now 2017-May-28 01:08 UTC.
Position N 15°52' E 108°42'.

Length 172 m; draft 9.5 m.

Type: Cargo ship. MMSI: 566406000.

Date/timePositionNaut miles runAvg speedWind from/ knotsBaromVisibWave heightAir tempDewpointWater temp
2017-May-24 12:34N 15°52' E 108°42'117.8
2017-May-24 12:29N 15°53' E 108°40'917.9
2017-May-24 11:57N 15°60' E 108°33'817.6
2017-May-24 11:30N 16°05' E 108°27'917.3
2017-May-24 10:57N 16°10' E 108°19'614.0
2017-May-24 10:30N 16°08' E 108°12'1 1.7
2017-May-24 10:00N 16°07' E 108°13'0 0.0
2017-May-24 09:30N 16°07' E 108°13'0 0.0
2017-May-24 09:00N 16°07' E 108°13'0 0.0
2017-May-24 08:30N 16°07' E 108°13'0 0.0
2017-May-24 08:00N 16°07' E 108°13'0 0.0
2017-May-24 07:30N 16°07' E 108°13'0 0.0
2017-May-24 06:59N 16°07' E 108°13'0 0.0
2017-May-24 06:29N 16°07' E 108°13'0 0.0
2017-May-24 05:59N 16°07' E 108°13'0 0.0
2017-May-24 05:31N 16°07' E 108°13'0 0.0
2017-May-24 04:59N 16°07' E 108°13'0 0.0
2017-May-24 04:29N 16°07' E 108°13'0 0.0
2017-May-24 03:59N 16°07' E 108°13'0 0.0
2017-May-24 03:30N 16°07' E 108°13'0 0.0
2017-May-24 03:00N 16°07' E 108°13'0 0.0
2017-May-24 02:30N 16°07' E 108°13'0 0.0
2017-May-24 02:00N 16°07' E 108°13'0 0.7
2017-May-24 01:30N 16°07' E 108°13'3 6.5
2017-May-24 01:00N 16°10' E 108°14'816.9
2017-May-24 00:30N 16°15' E 108°21'1018.0
2017-May-23 23:59N 16°20' E 108°30'73718.6
2017-May-22 08:23N 22°21' E 119°50'718.5
2017-May-22 08:01N 22°24' E 119°57'918.4
2017-May-22 07:31N 22°29' E 120°05'917.8
2017-May-22 07:00N 22°33' E 120°14'5 9.6
2017-May-22 06:30N 22°33' E 120°19'2 3.1
2017-May-22 06:00N 22°35' E 120°18'0 0.0
2017-May-22 05:29N 22°35' E 120°18'0 0.0
2017-May-22 04:59N 22°35' E 120°18'0 0.0
2017-May-22 04:26N 22°35' E 120°18'0 0.0
2017-May-22 03:59N 22°35' E 120°18'0 0.0
2017-May-22 03:23N 22°35' E 120°18'0 0.0
2017-May-22 02:59N 22°35' E 120°18'0 0.0
2017-May-22 02:29N 22°35' E 120°18'0 0.0
2017-May-22 01:59N 22°35' E 120°18'0 0.0
2017-May-22 01:29N 22°35' E 120°18'0 0.0
2017-May-22 00:59N 22°35' E 120°18'0 0.0
2017-May-22 00:29N 22°35' E 120°18'0 0.0
2017-May-21 23:59N 22°35' E 120°18'0 0.0
2017-May-21 22:23N 22°35' E 120°18'0 0.0
2017-May-21 21:44N 22°35' E 120°18'0 0.0
2017-May-21 20:05N 22°35' E 120°18'0 0.0
2017-May-21 17:38N 22°35' E 120°18'0 0.0
2017-May-21 17:23N 22°35' E 120°18'1 2.9
2017-May-21 17:00N 22°36' E 120°17'3 7.1
2017-May-21 16:30N 22°37' E 120°14'2 4.3
2017-May-21 16:00N 22°38' E 120°12'815.1
2017-May-21 15:30N 22°43' E 120°06'  
2017-May-19 10:12N 30°57' E 126°05'  
2017-May-16 19:59N 34°05' E 134°56'817.6
2017-May-16 19:30N 34°13' E 134°58'816.0
2017-May-16 19:00N 34°21' E 134°60'918.1
2017-May-16 18:30N 34°27' E 135°07'918.1
2017-May-16 18:00N 34°33' E 135°15'816.1
2017-May-16 17:30N 34°38' E 135°23'2 3.8
2017-May-16 17:00N 34°39' E 135°26'0 0.0
2017-May-16 16:22N 34°39' E 135°26'0 0.0
2017-May-16 15:58N 34°39' E 135°26'0 0.0
2017-May-16 15:28N 34°39' E 135°26'0 0.0
2017-May-16 14:58N 34°39' E 135°26'0 0.0
2017-May-16 13:58N 34°39' E 135°26'0 0.0
2017-May-16 13:28N 34°39' E 135°26'0 0.0
2017-May-16 12:58N 34°39' E 135°26'0 0.0
2017-May-16 12:28N 34°39' E 135°26'0 0.0
2017-May-16 11:59N 34°39' E 135°26'2 4.6
2017-May-16 11:30N 34°38' E 135°23'510.6
2017-May-16 11:00N 34°38' E 135°17'3 6.0
2017-May-16 10:30N 34°41' E 135°15'0 0.0
2017-May-16 09:58N 34°41' E 135°15'0 0.0
2017-May-16 09:28N 34°41' E 135°15'0 0.0
2017-May-16 08:58N 34°41' E 135°15'0 0.0
2017-May-16 08:28N 34°41' E 135°15'0 0.0
2017-May-16 07:58N 34°41' E 135°15'0 0.0
2017-May-16 07:28N 34°41' E 135°15'0 0.0
2017-May-16 06:58N 34°41' E 135°15'0 0.0
2017-May-16 06:22N 34°41' E 135°15'0 0.0
2017-May-16 05:58N 34°41' E 135°15'0 0.0
2017-May-16 05:28N 34°41' E 135°15'0 0.0
2017-May-16 04:46N 34°41' E 135°15'0 0.0
2017-May-16 04:28N 34°41' E 135°15'0 0.0
2017-May-16 03:58N 34°41' E 135°15'0 0.5
2017-May-16 03:30N 34°41' E 135°15'3 6.2
2017-May-16 03:00N 34°38' E 135°16'2 2.4
2017-May-16 02:22N 34°37' E 135°14'0 0.1
2017-May-16 01:58N 34°37' E 135°14'0 0.1
2017-May-16 01:22N 34°37' E 135°14'0 0.0
2017-May-16 00:52N 34°37' E 135°14'0 0.0
2017-May-16 00:28N 34°37' E 135°14'0 0.1
2017-May-15 23:52N 34°37' E 135°14'0 0.0
2017-May-15 23:28N 34°37' E 135°14'0 0.0
2017-May-15 22:58N 34°37' E 135°14'0 0.0
2017-May-15 22:28N 34°37' E 135°14'0 0.0
2017-May-15 21:46N 34°37' E 135°14'0 0.0
2017-May-15 21:22N 34°37' E 135°14'0 0.0
2017-May-15 20:58N 34°37' E 135°14'0 0.0
2017-May-15 20:28N 34°37' E 135°14'0 0.0
2017-May-15 19:58N 34°37' E 135°14'0 0.0
2017-May-15 19:22N 34°37' E 135°14'0 0.1
2017-May-15 18:58N 34°37' E 135°14'0 0.0
2017-May-15 18:16N 34°37' E 135°14'0 0.0
2017-May-15 17:58N 34°37' E 135°14'0 1.0
2017-May-15 17:30N 34°37' E 135°14'4 8.9
2017-May-15 17:00N 34°35' E 135°09'611.4
2017-May-15 16:30N 34°36' E 135°02'611.1
2017-May-15 16:00N 34°36' E 134°55'815.0
2017-May-15 15:30N 34°32' E 134°47'  
Track history (hours):
 
Tides and Currents Weather Stations Pressure Air Temp Water Temp Dewpoint Dewpoint Depression Visibility Wind Speed Wind Dir Waves Ship Positions

Wan Hai 273

Last reported at 2017-May-24 12:34 UTC. Time now 2017-May-28 01:08 UTC.
Position N 15°52' E 108°42'.

Length 172 m; draft 9.5 m.

Type: Cargo ship. MMSI: 566406000.

Date/timePositionNaut miles runAvg speedWind from/ knotsBaromVisibWave heightAir tempDewpointWater temp
2017-May-24 12:34N 15°52' E 108°42'117.8
2017-May-24 12:29N 15°53' E 108°40'917.9
2017-May-24 11:57N 15°60' E 108°33'817.6
2017-May-24 11:30N 16°05' E 108°27'917.3
2017-May-24 10:57N 16°10' E 108°19'614.0
2017-May-24 10:30N 16°08' E 108°12'1 1.7
2017-May-24 10:00N 16°07' E 108°13'0 0.0
2017-May-24 09:30N 16°07' E 108°13'0 0.0
2017-May-24 09:00N 16°07' E 108°13'0 0.0
2017-May-24 08:30N 16°07' E 108°13'0 0.0
2017-May-24 08:00N 16°07' E 108°13'0 0.0
2017-May-24 07:30N 16°07' E 108°13'0 0.0
2017-May-24 06:59N 16°07' E 108°13'0 0.0
2017-May-24 06:29N 16°07' E 108°13'0 0.0
2017-May-24 05:59N 16°07' E 108°13'0 0.0
2017-May-24 05:31N 16°07' E 108°13'0 0.0
2017-May-24 04:59N 16°07' E 108°13'0 0.0
2017-May-24 04:29N 16°07' E 108°13'0 0.0
2017-May-24 03:59N 16°07' E 108°13'0 0.0
2017-May-24 03:30N 16°07' E 108°13'0 0.0
2017-May-24 03:00N 16°07' E 108°13'0 0.0
2017-May-24 02:30N 16°07' E 108°13'0 0.0
2017-May-24 02:00N 16°07' E 108°13'0 0.7
2017-May-24 01:30N 16°07' E 108°13'3 6.5
2017-May-24 01:00N 16°10' E 108°14'816.9
2017-May-24 00:30N 16°15' E 108°21'1018.0
2017-May-23 23:59N 16°20' E 108°30'73718.6
2017-May-22 08:23N 22°21' E 119°50'718.5
2017-May-22 08:01N 22°24' E 119°57'918.4
2017-May-22 07:31N 22°29' E 120°05'917.8
2017-May-22 07:00N 22°33' E 120°14'5 9.6
2017-May-22 06:30N 22°33' E 120°19'2 3.1
2017-May-22 06:00N 22°35' E 120°18'0 0.0
2017-May-22 05:29N 22°35' E 120°18'0 0.0
2017-May-22 04:59N 22°35' E 120°18'0 0.0
2017-May-22 04:26N 22°35' E 120°18'0 0.0
2017-May-22 03:59N 22°35' E 120°18'0 0.0
2017-May-22 03:23N 22°35' E 120°18'0 0.0
2017-May-22 02:59N 22°35' E 120°18'0 0.0
2017-May-22 02:29N 22°35' E 120°18'0 0.0
2017-May-22 01:59N 22°35' E 120°18'0 0.0
2017-May-22 01:29N 22°35' E 120°18'0 0.0
2017-May-22 00:59N 22°35' E 120°18'0 0.0
2017-May-22 00:29N 22°35' E 120°18'0 0.0
2017-May-21 23:59N 22°35' E 120°18'0 0.0
2017-May-21 22:23N 22°35' E 120°18'0 0.0
2017-May-21 21:44N 22°35' E 120°18'0 0.0
2017-May-21 20:05N 22°35' E 120°18'0 0.0
2017-May-21 17:38N 22°35' E 120°18'0 0.0
2017-May-21 17:23N 22°35' E 120°18'1 2.9
2017-May-21 17:00N 22°36' E 120°17'3 7.1
2017-May-21 16:30N 22°37' E 120°14'2 4.3
2017-May-21 16:00N 22°38' E 120°12'815.1
2017-May-21 15:30N 22°43' E 120°06'  
2017-May-19 10:12N 30°57' E 126°05'  
2017-May-16 19:59N 34°05' E 134°56'817.6
2017-May-16 19:30N 34°13' E 134°58'816.0
2017-May-16 19:00N 34°21' E 134°60'918.1
2017-May-16 18:30N 34°27' E 135°07'918.1
2017-May-16 18:00N 34°33' E 135°15'816.1
2017-May-16 17:30N 34°38' E 135°23'2 3.8
2017-May-16 17:00N 34°39' E 135°26'0 0.0
2017-May-16 16:22N 34°39' E 135°26'0 0.0
2017-May-16 15:58N 34°39' E 135°26'0 0.0
2017-May-16 15:28N 34°39' E 135°26'0 0.0
2017-May-16 14:58N 34°39' E 135°26'0 0.0
2017-May-16 13:58N 34°39' E 135°26'0 0.0
2017-May-16 13:28N 34°39' E 135°26'0 0.0
2017-May-16 12:58N 34°39' E 135°26'0 0.0
2017-May-16 12:28N 34°39' E 135°26'0 0.0
2017-May-16 11:59N 34°39' E 135°26'2 4.6
2017-May-16 11:30N 34°38' E 135°23'510.6
2017-May-16 11:00N 34°38' E 135°17'3 6.0
2017-May-16 10:30N 34°41' E 135°15'0 0.0
2017-May-16 09:58N 34°41' E 135°15'0 0.0
2017-May-16 09:28N 34°41' E 135°15'0 0.0
2017-May-16 08:58N 34°41' E 135°15'0 0.0
2017-May-16 08:28N 34°41' E 135°15'0 0.0
2017-May-16 07:58N 34°41' E 135°15'0 0.0
2017-May-16 07:28N 34°41' E 135°15'0 0.0
2017-May-16 06:58N 34°41' E 135°15'0 0.0
2017-May-16 06:22N 34°41' E 135°15'0 0.0
2017-May-16 05:58N 34°41' E 135°15'0 0.0
2017-May-16 05:28N 34°41' E 135°15'0 0.0
2017-May-16 04:46N 34°41' E 135°15'0 0.0
2017-May-16 04:28N 34°41' E 135°15'0 0.0
2017-May-16 03:58N 34°41' E 135°15'0 0.5
2017-May-16 03:30N 34°41' E 135°15'3 6.2
2017-May-16 03:00N 34°38' E 135°16'2 2.4
2017-May-16 02:22N 34°37' E 135°14'0 0.1
2017-May-16 01:58N 34°37' E 135°14'0 0.1
2017-May-16 01:22N 34°37' E 135°14'0 0.0
2017-May-16 00:52N 34°37' E 135°14'0 0.0
2017-May-16 00:28N 34°37' E 135°14'0 0.1
2017-May-15 23:52N 34°37' E 135°14'0 0.0
2017-May-15 23:28N 34°37' E 135°14'0 0.0
2017-May-15 22:58N 34°37' E 135°14'0 0.0
2017-May-15 22:28N 34°37' E 135°14'0 0.0
2017-May-15 21:46N 34°37' E 135°14'0 0.0
2017-May-15 21:22N 34°37' E 135°14'0 0.0
2017-May-15 20:58N 34°37' E 135°14'0 0.0
2017-May-15 20:28N 34°37' E 135°14'0 0.0
2017-May-15 19:58N 34°37' E 135°14'0 0.0
2017-May-15 19:22N 34°37' E 135°14'0 0.1
2017-May-15 18:58N 34°37' E 135°14'0 0.0
2017-May-15 18:16N 34°37' E 135°14'0 0.0
2017-May-15 17:58N 34°37' E 135°14'0 1.0
2017-May-15 17:30N 34°37' E 135°14'4 8.9
2017-May-15 17:00N 34°35' E 135°09'611.4
2017-May-15 16:30N 34°36' E 135°02'611.1
2017-May-15 16:00N 34°36' E 134°55'815.0
2017-May-15 15:30N 34°32' E 134°47'  

Dump ship's entire track history